createdAt,value
2022-11-02T00:00:15.063Z,45.60
2022-11-02T00:03:36.592Z,47.40
2022-11-02T00:06:58.295Z,45.50
2022-11-02T00:10:15.095Z,42.40
2022-11-02T00:13:16.935Z,43.80
2022-11-02T00:16:19.990Z,41.90
2022-11-02T00:19:21.771Z,41.30
2022-11-02T00:22:24.066Z,43.10
2022-11-02T00:25:26.835Z,45.10
2022-11-02T00:28:29.198Z,44.90
2022-11-02T00:31:33.897Z,41.30
2022-11-02T00:34:35.555Z,40.20
2022-11-02T00:37:37.670Z,47.60
2022-11-02T00:40:39.504Z,44.40
2022-11-02T00:43:41.229Z,50.00
2022-11-02T00:46:42.881Z,44.80
2022-11-02T00:49:44.573Z,48.00
2022-11-02T00:52:46.364Z,45.70
2022-11-02T00:55:48.084Z,43.80
2022-11-02T00:58:49.879Z,48.80
2022-11-02T01:01:51.831Z,46.10
2022-11-02T01:04:56.683Z,42.80
2022-11-02T01:07:58.546Z,47.10
2022-11-02T01:11:19.318Z,43.40
2022-11-02T01:14:21.711Z,43.40
2022-11-02T01:17:23.464Z,46.10
2022-11-02T01:20:25.512Z,41.70
2022-11-02T01:23:27.436Z,48.00
2022-11-02T01:26:29.215Z,44.70
2022-11-02T01:29:30.898Z,43.60
2022-11-02T01:32:32.722Z,45.20
2022-11-02T01:35:37.002Z,43.50
2022-11-02T01:38:38.725Z,42.10
2022-11-02T01:41:41.323Z,47.50
2022-11-02T01:44:44.199Z,46.30
2022-11-02T01:47:48.553Z,45.10
2022-11-02T01:50:50.211Z,44.50
2022-11-02T01:53:53.055Z,42.10
2022-11-02T01:57:01.702Z,42.90
2022-11-02T02:00:12.197Z,46.70
2022-11-02T02:03:18.986Z,45.50
2022-11-02T02:06:20.846Z,44.50
2022-11-02T02:09:23.493Z,43.40
2022-11-02T02:12:25.822Z,48.90
2022-11-02T02:15:39.400Z,46.70
2022-11-02T02:18:47.740Z,45.00
2022-11-02T02:22:05.494Z,50.10
2022-11-02T02:25:31.703Z,47.20
2022-11-02T02:28:57.049Z,48.00
2022-11-02T02:32:36.417Z,49.00
2022-11-02T02:35:49.271Z,46.10
2022-11-02T02:39:13.413Z,45.10
2022-11-02T02:42:21.779Z,48.30
2022-11-02T02:45:23.380Z,45.30
2022-11-02T02:48:25.776Z,48.40
2022-11-02T02:51:32.544Z,49.50
2022-11-02T02:54:42.648Z,52.70
2022-11-02T02:57:45.842Z,51.40
2022-11-02T03:00:47.962Z,49.60
2022-11-02T03:03:49.701Z,48.90
2022-11-02T03:06:58.138Z,51.40
2022-11-02T03:10:10.731Z,50.90
2022-11-02T03:13:21.108Z,54.00
2022-11-02T03:16:35.386Z,53.20
2022-11-02T03:19:42.627Z,49.20
2022-11-02T03:22:58.259Z,49.70
2022-11-02T03:26:11.305Z,56.20
2022-11-02T03:29:16.633Z,49.20
2022-11-02T03:32:39.100Z,48.00
2022-11-02T03:35:47.461Z,44.40
2022-11-02T03:38:53.657Z,48.20
2022-11-02T03:41:56.910Z,48.10
2022-11-02T03:45:07.860Z,47.20
2022-11-02T03:48:12.187Z,45.60
2022-11-02T03:51:16.150Z,45.60
2022-11-02T03:54:43.678Z,46.80
2022-11-02T03:57:47.870Z,46.80
2022-11-02T04:00:58.853Z,49.60
2022-11-02T04:04:00.569Z,49.90
2022-11-02T04:07:05.338Z,51.20
2022-11-02T04:10:07.397Z,55.70
2022-11-02T04:13:27.953Z,51.10
2022-11-02T04:16:29.634Z,44.60
2022-11-02T04:19:31.270Z,49.50
2022-11-02T04:22:51.830Z,50.70
2022-11-02T04:25:56.340Z,54.80
2022-11-02T04:28:58.084Z,57.20
2022-11-02T04:31:59.906Z,55.50
2022-11-02T04:35:02.197Z,54.40
2022-11-02T04:38:22.904Z,62.60
2022-11-02T04:41:43.567Z,55.80
2022-11-02T04:44:45.198Z,59.00
2022-11-02T04:47:46.799Z,56.70
2022-11-02T04:50:48.493Z,53.00
2022-11-02T04:53:50.655Z,57.80
2022-11-02T04:56:52.485Z,55.00
2022-11-02T04:59:54.140Z,57.30
2022-11-02T05:02:55.975Z,53.60
2022-11-02T05:05:57.675Z,54.50
2022-11-02T05:08:59.321Z,52.00
2022-11-02T05:12:02.025Z,54.20
2022-11-02T05:15:04.975Z,51.20
2022-11-02T05:18:07.111Z,53.30
2022-11-02T05:21:11.040Z,51.30
2022-11-02T05:24:12.686Z,52.40
2022-11-02T05:27:15.470Z,51.90
2022-11-02T05:30:17.179Z,56.40
2022-11-02T05:33:19.012Z,53.60
2022-11-02T05:36:20.735Z,54.00
2022-11-02T05:39:22.425Z,58.40
2022-11-02T05:42:26.012Z,56.30
2022-11-02T05:45:27.791Z,48.30
2022-11-02T05:48:32.430Z,56.00
2022-11-02T05:51:34.146Z,53.90
2022-11-02T05:54:36.058Z,49.80
2022-11-02T05:57:37.804Z,55.80
2022-11-02T06:00:40.523Z,55.00
2022-11-02T06:03:42.338Z,57.90
2022-11-02T06:06:44.163Z,57.70
2022-11-02T06:09:45.877Z,56.20
2022-11-02T06:12:47.575Z,56.10
2022-11-02T06:15:49.358Z,57.60
2022-11-02T06:18:51.964Z,54.30
2022-11-02T06:21:53.704Z,59.00
2022-11-02T06:24:55.348Z,61.70
2022-11-02T06:27:57.531Z,67.60
2022-11-02T06:30:59.244Z,64.70
2022-11-02T06:34:00.929Z,59.60
2022-11-02T06:37:02.735Z,58.40
2022-11-02T06:40:04.850Z,62.40
2022-11-02T06:43:22.993Z,60.60
2022-11-02T06:46:25.643Z,55.20
2022-11-02T06:49:27.313Z,60.30
2022-11-02T06:52:29.547Z,59.60
2022-11-02T06:55:31.552Z,54.50
2022-11-02T06:58:33.289Z,56.90
2022-11-02T07:01:35.420Z,58.70
2022-11-02T07:04:37.403Z,57.60
2022-11-02T07:07:39.395Z,55.30
2022-11-02T07:10:41.116Z,56.40
2022-11-02T07:13:43.434Z,53.80
2022-11-02T07:16:45.314Z,50.70
2022-11-02T07:19:47.035Z,52.30
2022-11-02T07:22:56.939Z,52.80
2022-11-02T07:26:01.621Z,51.60
2022-11-02T07:29:03.633Z,56.10
2022-11-02T07:32:07.738Z,53.60
2022-11-02T07:35:11.477Z,54.80
2022-11-02T07:38:13.596Z,55.70
2022-11-02T07:41:15.393Z,49.20
2022-11-02T07:44:17.073Z,55.60
2022-11-02T07:47:18.888Z,59.20
2022-11-02T07:50:23.225Z,55.90
2022-11-02T07:53:24.871Z,49.00
2022-11-02T07:56:26.625Z,47.10
2022-11-02T07:59:28.961Z,49.40
2022-11-02T08:02:30.767Z,43.20
2022-11-02T08:05:35.069Z,46.00
2022-11-02T08:08:37.152Z,46.30
2022-11-02T08:11:39.202Z,46.20
2022-11-02T08:14:40.950Z,46.80
2022-11-02T08:17:42.880Z,47.00
2022-11-02T08:20:46.364Z,46.90
2022-11-02T08:23:48.087Z,45.80
2022-11-02T08:26:53.904Z,45.40
2022-11-02T08:29:57.305Z,46.30
2022-11-02T08:33:13.308Z,40.30
2022-11-02T08:36:15.191Z,43.80
2022-11-02T08:39:19.069Z,40.20
2022-11-02T08:42:21.091Z,43.10
2022-11-02T08:45:22.793Z,49.20
2022-11-02T08:48:24.823Z,38.30
2022-11-02T08:51:26.410Z,45.60
2022-11-02T08:54:28.727Z,39.70
2022-11-02T08:57:30.425Z,41.80
2022-11-02T09:00:33.962Z,41.20
2022-11-02T09:03:35.837Z,38.50
2022-11-02T09:06:37.540Z,41.30
2022-11-02T09:09:39.309Z,40.60
2022-11-02T09:12:40.953Z,43.20
2022-11-02T09:15:59.558Z,38.60
2022-11-02T09:19:05.288Z,37.50
2022-11-02T09:22:07.213Z,38.90
2022-11-02T09:25:09.689Z,38.50
2022-11-02T09:28:13.290Z,36.70
2022-11-02T09:31:15.054Z,38.10
2022-11-02T09:34:17.028Z,37.10
2022-11-02T09:37:18.972Z,35.50
2022-11-02T09:40:23.351Z,39.70
2022-11-02T09:43:38.242Z,36.40
2022-11-02T09:46:43.562Z,33.80
2022-11-02T09:49:45.583Z,35.70
2022-11-02T09:52:52.284Z,33.00
2022-11-02T09:55:57.537Z,35.70
2022-11-02T09:59:23.358Z,34.70
2022-11-02T10:02:47.074Z,32.90
2022-11-02T10:06:04.565Z,36.00
2022-11-02T10:09:37.941Z,33.70
2022-11-02T10:12:55.489Z,30.00
2022-11-02T10:16:02.391Z,28.10
2022-11-02T10:19:10.131Z,27.60
2022-11-02T10:22:14.015Z,26.10
2022-11-02T10:25:16.612Z,28.70
2022-11-02T10:28:26.327Z,30.70
2022-11-02T10:31:33.401Z,26.60
2022-11-02T10:34:35.333Z,25.40
2022-11-02T10:38:16.604Z,27.10
2022-11-02T10:41:21.423Z,25.20
2022-11-02T10:44:59.175Z,25.20
2022-11-02T10:48:11.495Z,23.10
2022-11-02T10:51:14.822Z,23.00
2022-11-02T10:54:20.576Z,24.10
2022-11-02T10:57:28.158Z,28.40
2022-11-02T11:00:35.467Z,26.20
2022-11-02T11:04:01.482Z,25.50
2022-11-02T11:07:21.080Z,23.80
2022-11-02T11:10:23.759Z,24.80
2022-11-02T11:16:56.508Z,24.10
2022-11-02T11:20:02.741Z,22.20
2022-11-02T11:23:21.462Z,23.10
2022-11-02T11:26:28.463Z,22.20
2022-11-02T11:29:32.786Z,24.10
2022-11-02T11:32:35.569Z,29.90
2022-11-02T11:35:38.857Z,25.20
2022-11-02T11:38:47.135Z,21.70
2022-11-02T11:41:48.966Z,21.60
2022-11-02T11:45:03.067Z,21.80
2022-11-02T11:48:23.026Z,21.00
2022-11-02T11:51:34.246Z,18.80
2022-11-02T11:54:36.675Z,19.30
2022-11-02T12:00:45.167Z,21.40
2022-11-02T12:04:01.355Z,25.30
2022-11-02T12:07:09.455Z,18.70
2022-11-02T12:10:21.897Z,23.60
2022-11-02T12:13:45.558Z,25.00
2022-11-02T12:17:12.501Z,21.00
2022-11-02T12:20:38.498Z,19.30
2022-11-02T12:23:52.895Z,19.00
2022-11-02T12:27:15.808Z,20.80
2022-11-02T12:30:22.056Z,19.00
2022-11-02T12:33:35.353Z,19.00
2022-11-02T12:40:24.082Z,19.80
2022-11-02T12:43:39.428Z,20.50
2022-11-02T12:46:57.165Z,18.50
2022-11-02T12:50:01.892Z,18.60
2022-11-02T12:53:19.130Z,18.30
2022-11-02T12:56:26.539Z,16.80
2022-11-02T12:59:31.498Z,20.30
2022-11-02T13:02:45.269Z,18.00
2022-11-02T13:05:54.664Z,18.60
2022-11-02T13:09:09.253Z,20.60
2022-11-02T13:12:15.250Z,18.70
2022-11-02T13:15:20.153Z,16.20
2022-11-02T13:18:24.865Z,20.00
2022-11-02T13:21:44.165Z,20.90
2022-11-02T13:24:50.314Z,20.20
2022-11-02T13:27:54.892Z,17.50
2022-11-02T13:30:57.144Z,19.00
2022-11-02T13:34:02.414Z,18.80
2022-11-02T13:37:17.472Z,20.70
2022-11-02T13:40:26.490Z,20.80
2022-11-02T13:43:43.217Z,19.90
2022-11-02T13:46:59.895Z,15.80
2022-11-02T13:50:03.565Z,18.00
2022-11-02T13:53:08.933Z,17.80
2022-11-02T13:56:12.911Z,15.80
2022-11-02T13:59:24.237Z,20.30
2022-11-02T14:02:29.185Z,21.80
2022-11-02T14:05:33.212Z,24.90
2022-11-02T14:08:38.257Z,19.00
2022-11-02T14:11:40.258Z,24.10
2022-11-02T14:14:41.927Z,23.10
2022-11-02T14:17:56.509Z,17.70
2022-11-02T14:20:58.719Z,20.90
2022-11-02T14:24:00.733Z,22.00
2022-11-02T14:27:13.012Z,25.20
2022-11-02T14:33:38.328Z,38.70
2022-11-02T14:37:01.143Z,23.20
2022-11-02T14:40:26.737Z,22.20
2022-11-02T14:43:50.007Z,21.60
2022-11-02T14:47:07.986Z,21.00
2022-11-02T14:50:12.635Z,23.80
2022-11-02T14:53:25.393Z,26.00
2022-11-02T14:57:06.620Z,20.90
2022-11-02T15:00:17.898Z,21.70
2022-11-02T15:03:25.754Z,47.30
2022-11-02T15:06:28.489Z,61.60
2022-11-02T15:09:59.269Z,101.30
2022-11-02T15:13:19.459Z,302.90
2022-11-02T15:16:22.563Z,93.30
2022-11-02T15:19:47.368Z,34.20
2022-11-02T15:22:52.830Z,32.20
2022-11-02T15:25:55.097Z,32.90
2022-11-02T15:28:59.131Z,33.10
2022-11-02T15:32:01.681Z,33.20
2022-11-02T15:35:04.146Z,44.00
2022-11-02T15:38:30.354Z,42.60
2022-11-02T15:41:45.012Z,33.70
2022-11-02T15:45:05.411Z,28.20
2022-11-02T15:48:22.260Z,31.10
2022-11-02T15:51:47.162Z,37.20
2022-11-02T15:55:10.597Z,38.10
2022-11-02T15:58:21.841Z,40.90
2022-11-02T16:01:25.593Z,41.90
2022-11-02T16:04:27.982Z,35.90
2022-11-02T16:07:43.585Z,35.80
2022-11-02T16:11:04.344Z,31.30
2022-11-02T16:14:17.331Z,35.80
2022-11-02T16:17:27.106Z,36.20
2022-11-02T16:20:31.936Z,36.10
2022-11-02T16:23:36.739Z,34.10
2022-11-02T16:26:38.550Z,40.00
2022-11-02T16:29:41.125Z,41.90
2022-11-02T16:32:43.123Z,37.30
2022-11-02T16:35:44.850Z,33.00
2022-11-02T16:38:54.525Z,32.90
2022-11-02T16:41:58.625Z,35.20
2022-11-02T16:45:01.278Z,29.40
2022-11-02T16:48:04.680Z,32.20
2022-11-02T16:51:18.171Z,33.80
2022-11-02T16:54:26.745Z,35.70
2022-11-02T16:57:31.334Z,34.00
2022-11-02T17:00:34.172Z,32.30
2022-11-02T17:03:35.939Z,29.80
2022-11-02T17:06:43.124Z,31.40
2022-11-02T17:09:54.061Z,29.70
2022-11-02T17:12:56.432Z,36.00
2022-11-02T17:16:04.723Z,35.60
2022-11-02T17:19:06.347Z,32.40
2022-11-02T17:22:29.344Z,35.30
2022-11-02T17:25:39.601Z,29.80
2022-11-02T17:28:44.908Z,33.50
2022-11-02T17:31:53.563Z,31.60
2022-11-02T17:34:57.033Z,32.40
2022-11-02T17:37:58.720Z,31.10
2022-11-02T17:41:00.911Z,33.00
2022-11-02T17:44:03.112Z,35.90
2022-11-02T17:47:16.040Z,32.50
2022-11-02T17:50:18.668Z,34.70
2022-11-02T17:53:20.621Z,33.80
2022-11-02T17:56:22.219Z,32.70
2022-11-02T17:59:23.855Z,33.80
2022-11-02T18:02:25.593Z,33.70
2022-11-02T18:05:28.690Z,32.80
2022-11-02T18:08:30.394Z,34.80
2022-11-02T18:11:32.173Z,35.70
2022-11-02T18:14:34.223Z,34.20
2022-11-02T18:17:35.802Z,33.40
2022-11-02T18:20:41.615Z,34.80
2022-11-02T18:23:44.723Z,37.50
2022-11-02T18:26:47.205Z,37.60
2022-11-02T18:29:49.005Z,39.00
2022-11-02T18:32:50.639Z,37.40
2022-11-02T18:35:52.318Z,37.80
2022-11-02T18:38:53.993Z,42.90
2022-11-02T18:41:55.577Z,35.80
2022-11-02T18:44:58.651Z,35.60
2022-11-02T18:48:00.330Z,34.60
2022-11-02T18:51:04.704Z,38.70
2022-11-02T18:54:06.533Z,32.50
2022-11-02T18:57:08.144Z,32.50
2022-11-02T19:00:10.270Z,36.70
2022-11-02T19:03:11.895Z,34.70
2022-11-02T19:06:32.493Z,38.30
2022-11-02T19:09:35.994Z,39.40
2022-11-02T19:12:37.929Z,38.30
2022-11-02T19:15:42.533Z,39.90
2022-11-02T19:18:44.777Z,43.10
2022-11-02T19:21:46.963Z,41.60
2022-11-02T19:24:50.113Z,45.30
2022-11-02T19:27:51.777Z,45.50
2022-11-02T19:30:53.421Z,45.50
2022-11-02T19:33:55.074Z,45.00
2022-11-02T19:36:56.726Z,44.60
2022-11-02T19:39:58.312Z,46.60
2022-11-02T19:43:00.022Z,48.60
2022-11-02T19:46:02.656Z,47.30
2022-11-02T19:49:04.263Z,41.30
2022-11-02T19:52:05.859Z,44.80
2022-11-02T19:55:07.861Z,43.20
2022-11-02T19:58:09.644Z,43.40
2022-11-02T20:01:13.909Z,45.80
2022-11-02T20:04:15.747Z,48.50
2022-11-02T20:07:17.451Z,51.70
2022-11-02T20:10:19.087Z,50.10
2022-11-02T20:13:20.674Z,46.50
2022-11-02T20:16:22.547Z,52.00
2022-11-02T20:19:24.157Z,46.80
2022-11-02T20:22:25.866Z,45.30
2022-11-02T20:25:27.654Z,41.90
2022-11-02T20:28:29.534Z,46.50
2022-11-02T20:31:34.072Z,50.90
2022-11-02T20:34:36.860Z,49.40
2022-11-02T20:37:38.479Z,46.10
2022-11-02T20:40:41.386Z,53.40
2022-11-02T20:43:45.501Z,48.00
2022-11-02T20:46:52.761Z,49.00
2022-11-02T20:49:55.154Z,48.30
2022-11-02T20:52:58.736Z,45.70
2022-11-02T20:56:00.940Z,46.00
2022-11-02T20:59:02.779Z,49.50
2022-11-02T21:02:04.550Z,46.70
2022-11-02T21:05:06.676Z,46.50
2022-11-02T21:08:08.325Z,47.30
2022-11-02T21:11:29.671Z,50.90
2022-11-02T21:14:31.462Z,47.00
2022-11-02T21:17:34.695Z,45.10
2022-11-02T21:20:36.810Z,51.40
2022-11-02T21:23:38.920Z,49.90
2022-11-02T21:26:40.535Z,47.80
2022-11-02T21:29:42.355Z,50.10
2022-11-02T21:32:44.017Z,44.40
2022-11-02T21:35:47.711Z,45.30
2022-11-02T21:38:49.472Z,46.50
2022-11-02T21:41:51.276Z,47.60
2022-11-02T21:44:52.888Z,49.70
2022-11-02T21:47:54.455Z,44.10
2022-11-02T21:51:13.185Z,48.40
2022-11-02T21:54:18.081Z,52.30
2022-11-02T21:57:20.867Z,50.20
2022-11-02T22:00:22.552Z,47.70
2022-11-02T22:03:24.307Z,43.90
2022-11-02T22:06:30.942Z,45.90
2022-11-02T22:09:33.571Z,48.50
2022-11-02T22:12:54.232Z,48.00
2022-11-02T22:15:55.955Z,50.70
2022-11-02T22:18:59.637Z,46.30
2022-11-02T22:22:01.416Z,51.50
2022-11-02T22:25:03.161Z,45.00
2022-11-02T22:28:04.975Z,54.30
2022-11-02T22:31:15.652Z,53.80
2022-11-02T22:34:17.368Z,50.50
2022-11-02T22:37:38.106Z,48.50
2022-11-02T22:40:39.688Z,51.40
2022-11-02T22:43:42.397Z,50.80
2022-11-02T22:46:46.580Z,51.30
2022-11-02T22:49:48.647Z,53.00
2022-11-02T22:52:50.214Z,51.00
2022-11-02T22:56:03.651Z,52.20
2022-11-02T22:59:06.091Z,54.70
2022-11-02T23:02:07.858Z,52.60
2022-11-02T23:05:09.975Z,49.00
2022-11-02T23:08:11.632Z,49.70
2022-11-02T23:11:21.340Z,53.10
2022-11-02T23:14:23.107Z,52.00
2022-11-02T23:17:25.044Z,51.40
2022-11-02T23:20:26.671Z,53.30
2022-11-02T23:23:46.992Z,54.80
2022-11-02T23:26:49.699Z,51.10
2022-11-02T23:30:10.063Z,51.90
2022-11-02T23:33:12.143Z,55.60
2022-11-02T23:36:15.472Z,51.40
2022-11-02T23:39:49.514Z,53.70
2022-11-02T23:42:51.288Z,53.20
2022-11-02T23:45:52.937Z,56.30
2022-11-02T23:48:54.552Z,56.80
2022-11-02T23:55:39.386Z,57.30
2022-11-02T23:58:41.180Z,58.30
